sensor_id;sensor_type;location;lat;lon;timestamp;P1;P2;P0
80861;PMS5003;71798;54.942;73.444;2023-08-21T00:01:03;11.00;10.00;7.00
80861;PMS5003;71798;54.942;73.444;2023-08-21T00:03:29;9.75;8.00;5.00
80861;PMS5003;71798;54.942;73.444;2023-08-21T00:05:55;9.00;8.00;5.00
80861;PMS5003;71798;54.942;73.444;2023-08-21T00:08:21;16.00;14.25;9.00
80861;PMS5003;71798;54.942;73.444;2023-08-21T00:10:47;6.00;5.75;3.25
80861;PMS5003;71798;54.942;73.444;2023-08-21T00:13:13;10.50;9.50;6.00
80861;PMS5003;71798;54.942;73.444;2023-08-21T00:15:39;9.00;8.00;5.00
80861;PMS5003;71798;54.942;73.444;2023-08-21T00:18:06;10.00;8.75;5.00
80861;PMS5003;71798;54.942;73.444;2023-08-21T00:20:32;8.00;7.00;4.00
80861;PMS5003;71798;54.942;73.444;2023-08-21T00:22:58;10.25;9.00;6.00
80861;PMS5003;71798;54.942;73.444;2023-08-21T00:25:24;8.00;7.00;5.00
80861;PMS5003;71798;54.942;73.444;2023-08-21T00:27:50;9.00;7.25;4.00
80861;PMS5003;71798;54.942;73.444;2023-08-21T00:30:16;9.00;7.75;5.00
80861;PMS5003;71798;54.942;73.444;2023-08-21T00:32:43;8.00;7.00;5.00
80861;PMS5003;71798;54.942;73.444;2023-08-21T00:35:09;7.00;5.25;4.00
80861;PMS5003;71798;54.942;73.444;2023-08-21T00:37:35;7.00;6.00;4.00
80861;PMS5003;71798;54.942;73.444;2023-08-21T00:40:02;17.00;16.00;12.00
80861;PMS5003;71798;54.942;73.444;2023-08-21T00:42:28;10.00;8.75;6.25
80861;PMS5003;71798;54.942;73.444;2023-08-21T00:44:55;8.00;7.00;5.00
80861;PMS5003;71798;54.942;73.444;2023-08-21T00:47:22;9.00;8.00;5.25
80861;PMS5003;71798;54.942;73.444;2023-08-21T00:49:49;6.00;6.00;3.00
80861;PMS5003;71798;54.942;73.444;2023-08-21T00:52:15;6.00;4.50;3.00
80861;PMS5003;71798;54.942;73.444;2023-08-21T00:54:41;7.00;6.00;3.25
80861;PMS5003;71798;54.942;73.444;2023-08-21T00:57:07;10.75;9.75;6.00
80861;PMS5003;71798;54.942;73.444;2023-08-21T00:59:36;23.00;21.00;14.00
80861;PMS5003;71798;54.942;73.444;2023-08-21T01:02:03;10.00;9.00;7.00
80861;PMS5003;71798;54.942;73.444;2023-08-21T01:04:30;9.00;7.50;5.00
80861;PMS5003;71798;54.942;73.444;2023-08-21T01:06:57;9.25;8.50;6.00
80861;PMS5003;71798;54.942;73.444;2023-08-21T01:09:25;9.00;8.00;5.00
80861;PMS5003;71798;54.942;73.444;2023-08-21T01:17:03;10.00;9.00;6.00
80861;PMS5003;71798;54.942;73.444;2023-08-21T01:19:38;10.00;8.75;5.00
80861;PMS5003;71798;54.942;73.444;2023-08-21T01:22:06;17.25;14.00;9.00
80861;PMS5003;71798;54.942;73.444;2023-08-21T01:24:32;17.00;15.75;10.00
80861;PMS5003;71798;54.942;73.444;2023-08-21T01:26:59;7.00;6.00;4.00
80861;PMS5003;71798;54.942;73.444;2023-08-21T01:29:26;5.50;5.00;2.00
80861;PMS5003;71798;54.942;73.444;2023-08-21T01:31:56;6.00;4.00;3.00
80861;PMS5003;71798;54.942;73.444;2023-08-21T01:34:24;3.00;3.00;2.00
80861;PMS5003;71798;54.942;73.444;2023-08-21T01:36:50;5.75;5.00;3.00
80861;PMS5003;71798;54.942;73.444;2023-08-21T01:39:18;4.00;4.00;2.00
80861;PMS5003;71798;54.942;73.444;2023-08-21T01:41:44;4.00;4.00;2.00
80861;PMS5003;71798;54.942;73.444;2023-08-21T01:44:10;3.00;3.00;1.00
80861;PMS5003;71798;54.942;73.444;2023-08-21T01:46:36;4.00;4.00;3.00
80861;PMS5003;71798;54.942;73.444;2023-08-21T01:49:02;2.25;2.25;1.00
80861;PMS5003;71798;54.942;73.444;2023-08-21T01:51:29;4.00;4.00;2.00
80861;PMS5003;71798;54.942;73.444;2023-08-21T01:53:55;4.00;3.50;2.00
80861;PMS5003;71798;54.942;73.444;2023-08-21T01:56:21;4.00;4.00;2.25
80861;PMS5003;71798;54.942;73.444;2023-08-21T01:58:47;3.00;3.00;2.00
80861;PMS5003;71798;54.942;73.444;2023-08-21T02:01:13;4.00;3.00;2.00
80861;PMS5003;71798;54.942;73.444;2023-08-21T02:03:40;3.50;3.00;3.00
80861;PMS5003;71798;54.942;73.444;2023-08-21T02:06:22;3.75;3.00;2.00
80861;PMS5003;71798;54.942;73.444;2023-08-21T02:08:48;5.00;4.25;3.00
80861;PMS5003;71798;54.942;73.444;2023-08-21T02:11:17;4.00;3.00;3.00
80861;PMS5003;71798;54.942;73.444;2023-08-21T02:13:43;4.00;4.00;2.00
80861;PMS5003;71798;54.942;73.444;2023-08-21T02:16:09;5.00;4.00;3.00
80861;PMS5003;71798;54.942;73.444;2023-08-21T02:18:35;4.00;4.00;2.50
80861;PMS5003;71798;54.942;73.444;2023-08-21T02:21:01;6.00;5.00;3.00
80861;PMS5003;71798;54.942;73.444;2023-08-21T02:23:27;5.00;4.25;3.00
80861;PMS5003;71798;54.942;73.444;2023-08-21T02:25:54;5.00;4.75;3.00
80861;PMS5003;71798;54.942;73.444;2023-08-21T02:28:21;3.00;3.00;2.00
80861;PMS5003;71798;54.942;73.444;2023-08-21T02:30:47;3.00;3.00;2.00
80861;PMS5003;71798;54.942;73.444;2023-08-21T02:33:13;3.00;3.00;2.00
80861;PMS5003;71798;54.942;73.444;2023-08-21T02:35:39;4.00;3.25;2.00
80861;PMS5003;71798;54.942;73.444;2023-08-21T02:38:05;4.00;3.00;2.00
80861;PMS5003;71798;54.942;73.444;2023-08-21T02:40:35;3.00;3.00;2.00
80861;PMS5003;71798;54.942;73.444;2023-08-21T02:43:01;3.00;3.00;2.00
80861;PMS5003;71798;54.942;73.444;2023-08-21T02:45:27;4.00;3.00;1.75
80861;PMS5003;71798;54.942;73.444;2023-08-21T02:47:53;3.00;3.00;2.00
80861;PMS5003;71798;54.942;73.444;2023-08-21T02:50:19;3.00;2.00;2.00
80861;PMS5003;71798;54.942;73.444;2023-08-21T02:52:46;4.00;3.00;1.75
80861;PMS5003;71798;54.942;73.444;2023-08-21T02:55:12;3.00;3.00;2.00
80861;PMS5003;71798;54.942;73.444;2023-08-21T02:57:39;3.00;2.00;2.00
80861;PMS5003;71798;54.942;73.444;2023-08-21T03:00:05;3.00;3.00;2.00
80861;PMS5003;71798;54.942;73.444;2023-08-21T03:02:34;3.00;2.25;2.00
80861;PMS5003;71798;54.942;73.444;2023-08-21T03:05:00;3.00;3.00;2.00
80861;PMS5003;71798;54.942;73.444;2023-08-21T03:07:26;2.00;2.00;2.00
80861;PMS5003;71798;54.942;73.444;2023-08-21T03:09:53;2.00;2.00;2.00
80861;PMS5003;71798;54.942;73.444;2023-08-21T03:12:19;3.00;3.00;2.00
80861;PMS5003;71798;54.942;73.444;2023-08-21T03:14:47;3.00;3.00;2.00
80861;PMS5003;71798;54.942;73.444;2023-08-21T03:17:13;2.00;2.00;1.25
80861;PMS5003;71798;54.942;73.444;2023-08-21T03:19:39;3.00;2.00;1.00
80861;PMS5003;71798;54.942;73.444;2023-08-21T03:22:05;3.00;3.00;2.00
80861;PMS5003;71798;54.942;73.444;2023-08-21T03:24:32;4.00;3.00;2.00
80861;PMS5003;71798;54.942;73.444;2023-08-21T03:26:59;4.00;3.25;2.00
80861;PMS5003;71798;54.942;73.444;2023-08-21T03:29:25;2.00;2.00;1.00
80861;PMS5003;71798;54.942;73.444;2023-08-21T03:31:52;3.00;3.00;1.75
80861;PMS5003;71798;54.942;73.444;2023-08-21T03:34:19;3.00;3.00;2.00
80861;PMS5003;71798;54.942;73.444;2023-08-21T03:36:47;2.00;2.00;1.00
80861;PMS5003;71798;54.942;73.444;2023-08-21T03:39:13;2.75;2.25;2.00
80861;PMS5003;71798;54.942;73.444;2023-08-21T03:41:43;3.00;2.25;2.00
80861;PMS5003;71798;54.942;73.444;2023-08-21T03:44:09;2.00;2.00;1.00
80861;PMS5003;71798;54.942;73.444;2023-08-21T03:46:35;3.00;3.00;2.00
80861;PMS5003;71798;54.942;73.444;2023-08-21T03:49:02;3.00;3.00;1.00
80861;PMS5003;71798;54.942;73.444;2023-08-21T03:51:28;2.00;2.00;1.00
80861;PMS5003;71798;54.942;73.444;2023-08-21T03:53:56;4.00;3.00;2.00
80861;PMS5003;71798;54.942;73.444;2023-08-21T03:56:23;2.00;2.00;1.25
80861;PMS5003;71798;54.942;73.444;2023-08-21T03:58:49;3.00;3.00;2.00
80861;PMS5003;71798;54.942;73.444;2023-08-21T04:01:15;2.00;2.00;1.25
80861;PMS5003;71798;54.942;73.444;2023-08-21T04:03:42;2.00;2.00;1.00
80861;PMS5003;71798;54.942;73.444;2023-08-21T04:06:08;3.00;2.50;2.00
80861;PMS5003;71798;54.942;73.444;2023-08-21T04:08:34;3.00;3.00;2.00
80861;PMS5003;71798;54.942;73.444;2023-08-21T04:11:01;2.00;2.00;2.00
80861;PMS5003;71798;54.942;73.444;2023-08-21T04:13:28;4.00;3.00;2.00
80861;PMS5003;71798;54.942;73.444;2023-08-21T04:15:55;2.00;2.00;1.25
80861;PMS5003;71798;54.942;73.444;2023-08-21T04:18:22;3.00;3.00;2.00
80861;PMS5003;71798;54.942;73.444;2023-08-21T04:20:48;4.00;3.00;2.00
80861;PMS5003;71798;54.942;73.444;2023-08-21T04:23:15;4.00;3.75;2.50
80861;PMS5003;71798;54.942;73.444;2023-08-21T04:25:41;4.00;3.50;2.00
80861;PMS5003;71798;54.942;73.444;2023-08-21T04:28:07;4.00;3.25;2.00
80861;PMS5003;71798;54.942;73.444;2023-08-21T04:30:39;4.00;3.00;2.00
80861;PMS5003;71798;54.942;73.444;2023-08-21T04:33:07;3.00;3.00;2.00
80861;PMS5003;71798;54.942;73.444;2023-08-21T04:35:36;3.00;3.00;2.00
80861;PMS5003;71798;54.942;73.444;2023-08-21T04:38:03;2.50;2.00;2.00
80861;PMS5003;71798;54.942;73.444;2023-08-21T04:40:30;3.25;3.00;2.00
80861;PMS5003;71798;54.942;73.444;2023-08-21T04:42:56;4.00;3.00;2.00
80861;PMS5003;71798;54.942;73.444;2023-08-21T04:45:23;3.00;3.00;2.00
80861;PMS5003;71798;54.942;73.444;2023-08-21T04:47:49;3.00;3.00;2.00
80861;PMS5003;71798;54.942;73.444;2023-08-21T04:50:15;3.00;3.00;2.00
80861;PMS5003;71798;54.942;73.444;2023-08-21T04:52:42;3.00;3.00;2.00
80861;PMS5003;71798;54.942;73.444;2023-08-21T04:55:09;3.00;3.00;2.00
80861;PMS5003;71798;54.942;73.444;2023-08-21T04:57:37;3.00;2.50;2.00
80861;PMS5003;71798;54.942;73.444;2023-08-21T05:00:06;3.00;2.00;1.00
80861;PMS5003;71798;54.942;73.444;2023-08-21T05:02:37;3.00;3.00;1.25
80861;PMS5003;71798;54.942;73.444;2023-08-21T05:05:03;4.00;3.00;2.00
80861;PMS5003;71798;54.942;73.444;2023-08-21T05:07:31;4.00;3.00;2.00
80861;PMS5003;71798;54.942;73.444;2023-08-21T05:10:00;3.00;3.00;2.00
80861;PMS5003;71798;54.942;73.444;2023-08-21T05:12:28;3.00;3.00;2.00
80861;PMS5003;71798;54.942;73.444;2023-08-21T05:14:54;3.00;3.00;2.00
80861;PMS5003;71798;54.942;73.444;2023-08-21T05:17:21;3.00;3.00;2.00
80861;PMS5003;71798;54.942;73.444;2023-08-21T05:19:47;4.00;4.00;3.00
80861;PMS5003;71798;54.942;73.444;2023-08-21T05:22:13;3.00;3.00;2.00
80861;PMS5003;71798;54.942;73.444;2023-08-21T05:24:40;4.00;3.00;2.00
80861;PMS5003;71798;54.942;73.444;2023-08-21T05:27:07;3.00;3.00;2.00
80861;PMS5003;71798;54.942;73.444;2023-08-21T05:29:33;4.00;4.00;3.00
80861;PMS5003;71798;54.942;73.444;2023-08-21T05:32:01;3.00;3.00;2.00
80861;PMS5003;71798;54.942;73.444;2023-08-21T05:34:27;3.00;3.00;2.00
80861;PMS5003;71798;54.942;73.444;2023-08-21T05:36:54;4.00;3.00;2.00
80861;PMS5003;71798;54.942;73.444;2023-08-21T05:39:20;4.00;3.50;2.00
80861;PMS5003;71798;54.942;73.444;2023-08-21T05:41:48;3.00;3.00;2.00
80861;PMS5003;71798;54.942;73.444;2023-08-21T05:46:23;3.50;3.25;2.00
80861;PMS5003;71798;54.942;73.444;2023-08-21T05:48:49;3.00;3.00;2.00
80861;PMS5003;71798;54.942;73.444;2023-08-21T05:51:15;3.00;3.00;1.25
80861;PMS5003;71798;54.942;73.444;2023-08-21T05:53:42;3.00;3.00;2.00
80861;PMS5003;71798;54.942;73.444;2023-08-21T05:56:08;2.00;2.00;1.00
80861;PMS5003;71798;54.942;73.444;2023-08-21T05:58:34;3.00;3.00;2.00
80861;PMS5003;71798;54.942;73.444;2023-08-21T06:01:00;3.00;3.00;2.00
80861;PMS5003;71798;54.942;73.444;2023-08-21T06:03:27;4.00;4.00;2.00
80861;PMS5003;71798;54.942;73.444;2023-08-21T06:06:19;2.00;2.00;2.00
80861;PMS5003;71798;54.942;73.444;2023-08-21T06:08:45;3.00;3.00;2.00
80861;PMS5003;71798;54.942;73.444;2023-08-21T06:11:11;5.00;4.00;3.00
80861;PMS5003;71798;54.942;73.444;2023-08-21T06:13:38;4.00;3.00;2.00
80861;PMS5003;71798;54.942;73.444;2023-08-21T06:16:04;2.75;2.75;2.00
80861;PMS5003;71798;54.942;73.444;2023-08-21T06:18:32;3.75;3.00;2.00
80861;PMS5003;71798;54.942;73.444;2023-08-21T06:20:58;3.00;3.00;2.00
80861;PMS5003;71798;54.942;73.444;2023-08-21T06:23:24;3.00;3.00;1.00
80861;PMS5003;71798;54.942;73.444;2023-08-21T06:25:51;2.00;2.00;2.00
80861;PMS5003;71798;54.942;73.444;2023-08-21T06:28:19;3.00;2.00;1.00
80861;PMS5003;71798;54.942;73.444;2023-08-21T06:30:45;4.00;3.00;2.00
80861;PMS5003;71798;54.942;73.444;2023-08-21T06:33:11;3.00;2.00;1.00
80861;PMS5003;71798;54.942;73.444;2023-08-21T06:35:38;2.00;2.00;1.00
80861;PMS5003;71798;54.942;73.444;2023-08-21T06:38:04;4.00;4.00;2.00
80861;PMS5003;71798;54.942;73.444;2023-08-21T06:40:32;3.00;3.00;1.25
80861;PMS5003;71798;54.942;73.444;2023-08-21T06:42:58;3.00;3.00;2.00
80861;PMS5003;71798;54.942;73.444;2023-08-21T06:45:29;3.00;2.00;2.00
80861;PMS5003;71798;54.942;73.444;2023-08-21T06:47:57;2.25;2.25;2.00
80861;PMS5003;71798;54.942;73.444;2023-08-21T06:50:24;2.00;2.00;1.00
80861;PMS5003;71798;54.942;73.444;2023-08-21T06:52:51;3.00;3.00;1.00
80861;PMS5003;71798;54.942;73.444;2023-08-21T06:55:17;3.00;3.00;2.00
80861;PMS5003;71798;54.942;73.444;2023-08-21T06:57:43;3.00;3.00;2.00
80861;PMS5003;71798;54.942;73.444;2023-08-21T07:00:09;3.25;3.00;2.00
80861;PMS5003;71798;54.942;73.444;2023-08-21T07:02:36;1.75;1.25;1.00
80861;PMS5003;71798;54.942;73.444;2023-08-21T07:05:03;2.00;2.00;1.00
80861;PMS5003;71798;54.942;73.444;2023-08-21T07:07:29;3.00;2.00;1.00
80861;PMS5003;71798;54.942;73.444;2023-08-21T07:09:55;2.00;2.00;1.00
80861;PMS5003;71798;54.942;73.444;2023-08-21T07:12:21;2.00;2.00;2.00
80861;PMS5003;71798;54.942;73.444;2023-08-21T07:14:47;3.00;2.00;1.00
80861;PMS5003;71798;54.942;73.444;2023-08-21T07:17:13;2.00;2.00;1.00
80861;PMS5003;71798;54.942;73.444;2023-08-21T07:19:40;3.00;3.00;2.00
80861;PMS5003;71798;54.942;73.444;2023-08-21T07:22:06;3.00;3.00;2.00
80861;PMS5003;71798;54.942;73.444;2023-08-21T07:24:32;3.00;3.00;2.00
80861;PMS5003;71798;54.942;73.444;2023-08-21T07:26:59;3.00;2.75;1.00
80861;PMS5003;71798;54.942;73.444;2023-08-21T07:29:25;2.00;2.00;2.00
80861;PMS5003;71798;54.942;73.444;2023-08-21T07:31:51;2.00;2.00;1.00
80861;PMS5003;71798;54.942;73.444;2023-08-21T07:34:17;2.50;2.00;1.00
80861;PMS5003;71798;54.942;73.444;2023-08-21T07:36:43;3.00;2.00;2.00
80861;PMS5003;71798;54.942;73.444;2023-08-21T07:39:09;3.00;3.00;2.00
80861;PMS5003;71798;54.942;73.444;2023-08-21T07:41:36;2.25;2.00;1.00
80861;PMS5003;71798;54.942;73.444;2023-08-21T07:44:02;2.00;2.00;1.00
80861;PMS5003;71798;54.942;73.444;2023-08-21T07:46:28;2.00;2.00;1.00
80861;PMS5003;71798;54.942;73.444;2023-08-21T07:48:54;3.00;3.00;2.00
80861;PMS5003;71798;54.942;73.444;2023-08-21T07:51:21;3.00;3.00;2.00
80861;PMS5003;71798;54.942;73.444;2023-08-21T07:53:47;2.00;1.75;1.00
80861;PMS5003;71798;54.942;73.444;2023-08-21T07:56:13;3.00;3.00;2.00
80861;PMS5003;71798;54.942;73.444;2023-08-21T07:58:39;3.00;3.00;2.00
80861;PMS5003;71798;54.942;73.444;2023-08-21T08:01:05;3.00;3.00;2.00
80861;PMS5003;71798;54.942;73.444;2023-08-21T08:03:33;3.00;3.00;2.00
80861;PMS5003;71798;54.942;73.444;2023-08-21T08:05:59;3.00;2.75;2.00
80861;PMS5003;71798;54.942;73.444;2023-08-21T08:08:25;5.25;4.50;2.50
80861;PMS5003;71798;54.942;73.444;2023-08-21T08:10:51;3.00;2.00;1.00
80861;PMS5003;71798;54.942;73.444;2023-08-21T08:13:17;3.00;2.00;2.00
80861;PMS5003;71798;54.942;73.444;2023-08-21T08:15:43;3.00;3.00;1.50
80861;PMS5003;71798;54.942;73.444;2023-08-21T08:18:13;3.00;2.00;2.00
80861;PMS5003;71798;54.942;73.444;2023-08-21T08:20:39;2.00;2.00;1.00
80861;PMS5003;71798;54.942;73.444;2023-08-21T08:23:06;2.00;2.00;2.00
80861;PMS5003;71798;54.942;73.444;2023-08-21T08:25:32;2.00;2.00;1.00
80861;PMS5003;71798;54.942;73.444;2023-08-21T08:27:58;2.00;2.00;1.00
80861;PMS5003;71798;54.942;73.444;2023-08-21T08:30:24;2.00;2.00;1.75
80861;PMS5003;71798;54.942;73.444;2023-08-21T08:32:52;5.00;5.00;3.00
80861;PMS5003;71798;54.942;73.444;2023-08-21T08:35:18;4.00;4.00;3.00
80861;PMS5003;71798;54.942;73.444;2023-08-21T08:37:49;3.00;3.00;2.00
80861;PMS5003;71798;54.942;73.444;2023-08-21T08:40:15;3.00;3.00;2.00
80861;PMS5003;71798;54.942;73.444;2023-08-21T08:42:41;2.00;2.00;1.00
80861;PMS5003;71798;54.942;73.444;2023-08-21T08:45:07;3.00;3.00;2.00
80861;PMS5003;71798;54.942;73.444;2023-08-21T08:47:34;3.00;3.00;2.00
80861;PMS5003;71798;54.942;73.444;2023-08-21T08:50:06;3.00;3.00;1.00
80861;PMS5003;71798;54.942;73.444;2023-08-21T08:52:35;3.00;2.00;2.00
80861;PMS5003;71798;54.942;73.444;2023-08-21T08:55:01;3.00;3.00;2.00
80861;PMS5003;71798;54.942;73.444;2023-08-21T08:57:32;2.00;2.00;1.00
80861;PMS5003;71798;54.942;73.444;2023-08-21T09:00:01;4.00;4.00;2.00
80861;PMS5003;71798;54.942;73.444;2023-08-21T09:02:29;2.00;2.00;1.00
80861;PMS5003;71798;54.942;73.444;2023-08-21T09:04:55;2.00;2.00;2.00
80861;PMS5003;71798;54.942;73.444;2023-08-21T09:07:21;3.00;3.00;2.00
80861;PMS5003;71798;54.942;73.444;2023-08-21T09:09:48;3.00;3.00;2.00
80861;PMS5003;71798;54.942;73.444;2023-08-21T09:12:19;3.00;2.75;1.75
80861;PMS5003;71798;54.942;73.444;2023-08-21T09:14:45;4.00;4.00;3.00
80861;PMS5003;71798;54.942;73.444;2023-08-21T09:17:26;2.00;2.00;1.00
80861;PMS5003;71798;54.942;73.444;2023-08-21T09:19:52;3.00;3.00;2.00
80861;PMS5003;71798;54.942;73.444;2023-08-21T09:22:18;2.75;2.00;1.00
80861;PMS5003;71798;54.942;73.444;2023-08-21T09:25:01;2.00;2.00;1.00
80861;PMS5003;71798;54.942;73.444;2023-08-21T09:27:31;3.00;2.00;1.00
80861;PMS5003;71798;54.942;73.444;2023-08-21T09:29:57;3.00;3.00;2.00
80861;PMS5003;71798;54.942;73.444;2023-08-21T09:32:26;3.00;2.00;1.00
80861;PMS5003;71798;54.942;73.444;2023-08-21T09:35:02;3.00;3.00;2.00
80861;PMS5003;71798;54.942;73.444;2023-08-21T09:37:31;2.00;2.00;1.00
80861;PMS5003;71798;54.942;73.444;2023-08-21T09:40:00;2.00;2.00;1.00
80861;PMS5003;71798;54.942;73.444;2023-08-21T09:42:26;2.00;2.00;1.00
80861;PMS5003;71798;54.942;73.444;2023-08-21T09:44:52;3.00;2.75;2.00
80861;PMS5003;71798;54.942;73.444;2023-08-21T09:47:19;2.50;2.00;1.00
80861;PMS5003;71798;54.942;73.444;2023-08-21T09:49:46;2.00;2.00;2.00
80861;PMS5003;71798;54.942;73.444;2023-08-21T09:52:12;5.00;4.00;3.00
80861;PMS5003;71798;54.942;73.444;2023-08-21T09:54:57;4.00;4.00;2.00
80861;PMS5003;71798;54.942;73.444;2023-08-21T09:57:24;3.00;3.00;2.00
80861;PMS5003;71798;54.942;73.444;2023-08-21T09:59:53;3.00;3.00;2.00
80861;PMS5003;71798;54.942;73.444;2023-08-21T10:02:22;2.00;2.00;1.00
80861;PMS5003;71798;54.942;73.444;2023-08-21T10:04:49;3.00;3.00;2.00
80861;PMS5003;71798;54.942;73.444;2023-08-21T10:07:16;3.00;2.00;2.00
80861;PMS5003;71798;54.942;73.444;2023-08-21T10:09:45;3.00;3.00;2.00
80861;PMS5003;71798;54.942;73.444;2023-08-21T10:12:12;3.00;3.00;2.00
80861;PMS5003;71798;54.942;73.444;2023-08-21T10:14:39;2.00;2.00;1.00
80861;PMS5003;71798;54.942;73.444;2023-08-21T10:17:05;3.00;2.75;1.25
80861;PMS5003;71798;54.942;73.444;2023-08-21T10:19:36;8.00;6.00;3.00
80861;PMS5003;71798;54.942;73.444;2023-08-21T10:22:03;4.00;4.00;2.00
80861;PMS5003;71798;54.942;73.444;2023-08-21T10:24:36;4.00;3.00;3.00
80861;PMS5003;71798;54.942;73.444;2023-08-21T10:27:03;4.00;2.75;2.00
80861;PMS5003;71798;54.942;73.444;2023-08-21T10:29:29;4.00;3.75;2.00
80861;PMS5003;71798;54.942;73.444;2023-08-21T10:31:58;3.25;3.00;1.75
80861;PMS5003;71798;54.942;73.444;2023-08-21T10:34:30;2.50;2.00;1.00
80861;PMS5003;71798;54.942;73.444;2023-08-21T10:39:26;2.00;2.00;1.00
80861;PMS5003;71798;54.942;73.444;2023-08-21T10:41:59;3.00;3.00;2.00
80861;PMS5003;71798;54.942;73.444;2023-08-21T10:47:20;3.00;3.00;1.00
80861;PMS5003;71798;54.942;73.444;2023-08-21T10:49:51;3.25;3.50;2.00
80861;PMS5003;71798;54.942;73.444;2023-08-21T10:52:20;4.00;3.00;1.75
80861;PMS5003;71798;54.942;73.444;2023-08-21T10:54:48;2.00;2.00;1.00
80861;PMS5003;71798;54.942;73.444;2023-08-21T10:57:14;3.00;2.00;1.00
80861;PMS5003;71798;54.942;73.444;2023-08-21T10:59:54;2.75;2.75;1.00
80861;PMS5003;71798;54.942;73.444;2023-08-21T11:02:21;3.00;3.00;2.00
80861;PMS5003;71798;54.942;73.444;2023-08-21T11:04:48;3.00;3.00;2.00
80861;PMS5003;71798;54.942;73.444;2023-08-21T11:07:14;2.00;2.00;2.00
80861;PMS5003;71798;54.942;73.444;2023-08-21T11:09:40;3.00;2.00;2.00
80861;PMS5003;71798;54.942;73.444;2023-08-21T11:12:07;3.00;2.75;1.50
80861;PMS5003;71798;54.942;73.444;2023-08-21T11:14:44;2.00;2.00;1.00
80861;PMS5003;71798;54.942;73.444;2023-08-21T11:17:11;3.00;3.00;2.00
80861;PMS5003;71798;54.942;73.444;2023-08-21T11:19:37;4.00;4.00;3.00
80861;PMS5003;71798;54.942;73.444;2023-08-21T11:22:04;2.00;2.00;1.00
80861;PMS5003;71798;54.942;73.444;2023-08-21T11:27:04;3.00;3.00;2.00
80861;PMS5003;71798;54.942;73.444;2023-08-21T11:29:37;3.00;3.00;2.00
80861;PMS5003;71798;54.942;73.444;2023-08-21T11:32:15;5.50;5.00;3.00
80861;PMS5003;71798;54.942;73.444;2023-08-21T11:34:42;3.00;3.00;2.00
80861;PMS5003;71798;54.942;73.444;2023-08-21T11:37:08;3.25;3.00;1.00
80861;PMS5003;71798;54.942;73.444;2023-08-21T11:39:38;3.00;2.25;1.75
80861;PMS5003;71798;54.942;73.444;2023-08-21T11:42:08;3.50;3.00;1.00
80861;PMS5003;71798;54.942;73.444;2023-08-21T11:44:39;3.00;3.00;1.50
80861;PMS5003;71798;54.942;73.444;2023-08-21T11:47:05;2.00;2.00;1.00
80861;PMS5003;71798;54.942;73.444;2023-08-21T11:49:31;2.00;2.00;1.00
80861;PMS5003;71798;54.942;73.444;2023-08-21T11:51:58;3.00;2.00;1.00
80861;PMS5003;71798;54.942;73.444;2023-08-21T11:54:24;5.00;4.00;3.00
80861;PMS5003;71798;54.942;73.444;2023-08-21T11:56:50;3.00;3.00;2.00
80861;PMS5003;71798;54.942;73.444;2023-08-21T11:59:22;2.00;2.00;1.00
80861;PMS5003;71798;54.942;73.444;2023-08-21T12:01:52;4.00;4.00;2.00
80861;PMS5003;71798;54.942;73.444;2023-08-21T12:04:18;3.00;2.00;1.75
80861;PMS5003;71798;54.942;73.444;2023-08-21T12:06:44;3.00;3.00;2.00
80861;PMS5003;71798;54.942;73.444;2023-08-21T12:09:10;2.00;2.00;1.00
80861;PMS5003;71798;54.942;73.444;2023-08-21T12:11:37;3.00;2.00;1.00
80861;PMS5003;71798;54.942;73.444;2023-08-21T12:14:06;3.75;3.00;2.00
80861;PMS5003;71798;54.942;73.444;2023-08-21T12:16:32;4.00;3.00;2.00
80861;PMS5003;71798;54.942;73.444;2023-08-21T12:18:59;3.00;3.00;2.00
80861;PMS5003;71798;54.942;73.444;2023-08-21T12:21:25;4.50;4.00;2.25
80861;PMS5003;71798;54.942;73.444;2023-08-21T12:23:51;3.00;3.00;2.00
80861;PMS5003;71798;54.942;73.444;2023-08-21T12:26:17;5.00;4.00;2.00
80861;PMS5003;71798;54.942;73.444;2023-08-21T12:28:49;4.00;3.00;1.75
80861;PMS5003;71798;54.942;73.444;2023-08-21T12:31:15;3.25;3.00;2.00
80861;PMS5003;71798;54.942;73.444;2023-08-21T12:33:42;4.00;3.50;2.00
80861;PMS5003;71798;54.942;73.444;2023-08-21T12:36:08;4.00;3.00;2.00
80861;PMS5003;71798;54.942;73.444;2023-08-21T12:38:37;4.00;3.00;2.00
80861;PMS5003;71798;54.942;73.444;2023-08-21T12:41:03;4.00;4.00;2.50
80861;PMS5003;71798;54.942;73.444;2023-08-21T12:43:30;6.00;5.50;3.00
80861;PMS5003;71798;54.942;73.444;2023-08-21T12:45:56;4.00;3.25;2.00
80861;PMS5003;71798;54.942;73.444;2023-08-21T12:48:23;6.00;5.00;3.00
80861;PMS5003;71798;54.942;73.444;2023-08-21T12:50:49;5.75;5.00;3.00
80861;PMS5003;71798;54.942;73.444;2023-08-21T12:53:16;6.00;5.00;2.00
80861;PMS5003;71798;54.942;73.444;2023-08-21T12:55:42;6.00;6.00;4.00
80861;PMS5003;71798;54.942;73.444;2023-08-21T12:58:08;4.75;4.00;2.00
80861;PMS5003;71798;54.942;73.444;2023-08-21T13:00:34;12.75;11.00;7.00
80861;PMS5003;71798;54.942;73.444;2023-08-21T13:03:00;14.00;12.00;7.00
80861;PMS5003;71798;54.942;73.444;2023-08-21T13:05:26;11.25;10.25;6.75
80861;PMS5003;71798;54.942;73.444;2023-08-21T13:07:52;15.00;13.00;8.00
80861;PMS5003;71798;54.942;73.444;2023-08-21T13:10:18;18.00;15.50;9.00
80861;PMS5003;71798;54.942;73.444;2023-08-21T13:12:45;12.75;10.25;6.00
80861;PMS5003;71798;54.942;73.444;2023-08-21T13:16:15;7.00;6.00;4.00
80861;PMS5003;71798;54.942;73.444;2023-08-21T13:19:47;13.75;12.00;8.75
80861;PMS5003;71798;54.942;73.444;2023-08-21T13:23:17;18.00;16.00;11.00
80861;PMS5003;71798;54.942;73.444;2023-08-21T13:26:47;18.00;16.00;11.00
80861;PMS5003;71798;54.942;73.444;2023-08-21T13:33:55;4.00;4.00;2.00
80861;PMS5003;71798;54.942;73.444;2023-08-21T13:37:26;4.00;3.00;2.00
80861;PMS5003;71798;54.942;73.444;2023-08-21T13:40:57;5.00;4.00;2.00
80861;PMS5003;71798;54.942;73.444;2023-08-21T13:44:28;6.00;5.00;3.00
80861;PMS5003;71798;54.942;73.444;2023-08-21T13:47:59;8.00;7.00;4.00
80861;PMS5003;71798;54.942;73.444;2023-08-21T13:51:30;6.50;6.00;3.00
80861;PMS5003;71798;54.942;73.444;2023-08-21T13:55:01;5.00;4.00;2.25
80861;PMS5003;71798;54.942;73.444;2023-08-21T13:57:28;6.00;5.75;4.00
80861;PMS5003;71798;54.942;73.444;2023-08-21T13:59:54;5.00;5.00;3.00
80861;PMS5003;71798;54.942;73.444;2023-08-21T14:02:20;7.75;6.75;3.00
80861;PMS5003;71798;54.942;73.444;2023-08-21T14:04:48;7.00;6.00;4.00
80861;PMS5003;71798;54.942;73.444;2023-08-21T14:08:20;7.00;6.00;3.00
80861;PMS5003;71798;54.942;73.444;2023-08-21T14:11:52;7.00;6.00;3.00
80861;PMS5003;71798;54.942;73.444;2023-08-21T14:15:26;5.25;4.75;3.00
80861;PMS5003;71798;54.942;73.444;2023-08-21T14:18:57;7.00;7.00;4.75
80861;PMS5003;71798;54.942;73.444;2023-08-21T14:22:28;9.75;8.00;5.00
80861;PMS5003;71798;54.942;73.444;2023-08-21T14:25:59;10.00;9.00;5.75
80861;PMS5003;71798;54.942;73.444;2023-08-21T14:29:29;11.00;9.50;5.00
80861;PMS5003;71798;54.942;73.444;2023-08-21T14:33:01;8.75;7.75;5.00
80861;PMS5003;71798;54.942;73.444;2023-08-21T14:36:56;9.25;8.00;4.00
80861;PMS5003;71798;54.942;73.444;2023-08-21T14:40:52;15.00;13.00;8.00
80861;PMS5003;71798;54.942;73.444;2023-08-21T14:44:23;14.00;13.00;8.00
80861;PMS5003;71798;54.942;73.444;2023-08-21T14:47:55;10.00;9.00;6.00
80861;PMS5003;71798;54.942;73.444;2023-08-21T14:51:27;7.00;6.00;4.00
80861;PMS5003;71798;54.942;73.444;2023-08-21T14:55:21;7.00;6.00;3.00